Time;durP1;ratioP1;P1;durP2;ratioP2;P2;SDS_P1;SDS_P2;PMS_P1;PMS_P2;Temp;Humidity;BMP_temperature;BMP_pressure;BME280_temperature;BME280_humidity;BME280_pressure;Samples;Min_cycle;Max_cycle;Signal;HPM_P1;HPM_P2
2020/12/20 00:00:37;;;;;;;6.85;4.07;;;12.50;76.00;;;;;;4946386;28;20260;-95
2020/12/20 00:03:03;;;;;;;10.73;4.30;;;12.60;75.50;;;;;;4924739;29;20669;-94
2020/12/20 00:05:29;;;;;;;7.50;4.03;;;12.50;75.40;;;;;;4926040;29;20200;-94
2020/12/20 00:07:55;;;;;;;9.93;3.83;;;12.40;75.60;;;;;;4930526;28;20163;-93
2020/12/20 00:10:22;;;;;;;6.85;4.25;;;12.40;75.80;;;;;;4945179;29;20197;-94
2020/12/20 00:12:48;;;;;;;4.75;3.53;;;12.40;75.80;;;;;;4928134;29;20201;-94
2020/12/20 00:15:15;;;;;;;6.88;3.85;;;12.40;76.10;;;;;;4925365;29;20189;-93
2020/12/20 00:17:46;;;;;;;8.43;3.90;;;12.50;75.90;;;;;;4922714;29;20184;-94
2020/12/20 00:20:13;;;;;;;12.77;4.40;;;12.40;75.80;;;;;;4928450;29;20213;-94
2020/12/20 00:22:39;;;;;;;12.35;4.47;;;12.30;76.20;;;;;;4925029;29;20229;-94
2020/12/20 00:25:05;;;;;;;9.03;4.37;;;12.30;76.20;;;;;;4925171;29;20214;-92
2020/12/20 00:27:30;;;;;;;6.53;3.50;;;12.40;76.50;;;;;;4923704;29;20440;-92
2020/12/20 00:29:56;;;;;;;9.83;3.90;;;12.50;76.00;;;;;;4924304;29;20451;-93
2020/12/20 00:32:22;;;;;;;12.27;3.83;;;12.50;76.00;;;;;;4924044;29;20233;-93
2020/12/20 00:34:48;;;;;;;6.43;3.70;;;12.40;75.50;;;;;;4923977;29;20189;-93
2020/12/20 00:37:13;;;;;;;10.03;4.20;;;12.50;75.50;;;;;;4926585;29;20960;-93
2020/12/20 00:39:39;;;;;;;8.20;4.10;;;12.60;75.40;;;;;;4931475;29;20220;-94
2020/12/20 00:42:06;;;;;;;10.25;4.75;;;12.70;75.40;;;;;;4942484;28;20173;-94
2020/12/20 00:44:33;;;;;;;9.98;4.05;;;12.60;75.00;;;;;;4941223;29;20284;-93
2020/12/20 00:47:00;;;;;;;4.95;3.63;;;12.50;75.20;;;;;;4944308;29;20169;-95
2020/12/20 00:49:28;;;;;;;10.65;4.38;;;12.60;75.40;;;;;;4931877;29;20205;-93
2020/12/20 00:52:00;;;;;;;12.73;3.70;;;12.70;75.30;;;;;;4925141;29;20257;-93
2020/12/20 00:54:27;;;;;;;9.27;4.60;;;12.70;74.90;;;;;;4926200;29;20189;-93
2020/12/20 00:56:53;;;;;;;6.90;4.28;;;12.70;74.70;;;;;;4924268;29;20185;-94
2020/12/20 00:59:19;;;;;;;7.50;4.07;;;12.80;74.80;;;;;;4925330;29;20213;-94
2020/12/20 01:01:44;;;;;;;8.20;4.93;;;12.80;74.40;;;;;;4924544;29;20425;-94
2020/12/20 01:04:10;;;;;;;9.13;4.07;;;12.90;74.40;;;;;;4926945;29;20491;-94
2020/12/20 01:06:36;;;;;;;11.53;4.43;;;12.80;74.30;;;;;;4924533;29;20181;-94
2020/12/20 01:09:03;;;;;;;8.45;5.65;;;12.60;74.60;;;;;;4934799;29;20441;-94
2020/12/20 01:11:29;;;;;;;9.30;4.45;;;12.70;74.80;;;;;;4942531;29;20217;-94
2020/12/20 01:13:55;;;;;;;11.40;4.73;;;12.40;75.20;;;;;;4922156;29;20188;-93
2020/12/20 01:16:26;;;;;;;10.45;4.07;;;12.40;75.90;;;;;;4922182;29;20519;-93
2020/12/20 01:18:56;;;;;;;10.13;4.38;;;12.40;75.80;;;;;;4922261;29;20680;-94
2020/12/20 01:21:22;;;;;;;6.60;4.45;;;12.30;75.90;;;;;;4925190;29;20181;-93
2020/12/20 01:23:48;;;;;;;6.40;4.50;;;12.20;76.20;;;;;;4922721;29;20185;-93
2020/12/20 01:26:14;;;;;;;12.93;5.03;;;12.20;76.60;;;;;;4923016;29;20983;-94
2020/12/20 01:28:40;;;;;;;10.70;5.15;;;12.10;76.80;;;;;;4922606;29;20429;-93
2020/12/20 01:31:11;;;;;;;12.15;4.70;;;11.90;77.10;;;;;;4924447;29;20205;-94
2020/12/20 01:33:37;;;;;;;14.93;5.70;;;11.90;77.80;;;;;;4923833;29;20178;-93
2020/12/20 01:36:08;;;;;;;11.60;5.82;;;12.10;77.60;;;;;;4924351;29;20556;-93
2020/12/20 01:38:34;;;;;;;13.23;5.78;;;12.10;77.10;;;;;;4924401;29;20240;-94
2020/12/20 01:40:59;;;;;;;14.05;6.40;;;12.30;76.80;;;;;;4923408;29;20205;-94
2020/12/20 01:43:28;;;;;;;14.03;6.23;;;12.30;76.70;;;;;;4923639;29;20669;-93
2020/12/20 01:45:53;;;;;;;11.93;5.50;;;12.20;76.40;;;;;;4922630;29;20188;-93
2020/12/20 01:48:21;;;;;;;23.10;8.30;;;12.20;76.50;;;;;;4922656;29;20181;-93
2020/12/20 01:50:51;;;;;;;24.73;8.07;;;12.10;77.10;;;;;;4922329;29;20204;-93
2020/12/20 01:53:17;;;;;;;16.60;6.07;;;12.10;77.20;;;;;;4922482;29;20196;-93
2020/12/20 01:55:43;;;;;;;10.77;5.40;;;12.20;76.90;;;;;;4922817;29;20181;-93
2020/12/20 01:58:09;;;;;;;15.00;4.53;;;12.30;76.70;;;;;;4921149;29;20645;-94
2020/12/20 02:00:35;;;;;;;16.05;5.60;;;12.30;76.30;;;;;;4934723;29;20453;-93
2020/12/20 02:03:01;;;;;;;10.00;5.63;;;12.20;76.50;;;;;;4931063;29;20197;-93
2020/12/20 02:05:26;;;;;;;13.70;5.70;;;12.10;76.90;;;;;;4926843;29;20425;-94
2020/12/20 02:07:52;;;;;;;11.13;5.87;;;12.20;76.80;;;;;;4940283;29;20193;-93
2020/12/20 02:10:18;;;;;;;9.80;5.40;;;12.30;76.50;;;;;;4941070;29;20201;-93
2020/12/20 02:12:44;;;;;;;14.75;5.30;;;12.40;76.30;;;;;;4941631;29;20275;-93
2020/12/20 02:15:11;;;;;;;10.68;6.13;;;12.30;76.10;;;;;;4941071;29;20252;-93
2020/12/20 02:17:37;;;;;;;13.13;6.10;;;12.20;76.40;;;;;;4941059;29;20177;-92
2020/12/20 02:20:04;;;;;;;24.10;5.93;;;12.10;76.70;;;;;;4941545;29;20202;-92
2020/12/20 02:22:30;;;;;;;11.40;5.57;;;12.30;76.50;;;;;;4941486;29;20192;-93
2020/12/20 02:24:56;;;;;;;10.93;5.20;;;12.30;76.30;;;;;;4938843;29;20173;-93
2020/12/20 02:27:21;;;;;;;19.13;5.60;;;12.00;76.50;;;;;;4922452;29;20213;-93
2020/12/20 02:29:47;;;;;;;18.67;5.77;;;11.90;77.20;;;;;;4921077;29;20214;-93
2020/12/20 02:32:13;;;;;;;14.03;5.53;;;12.00;77.30;;;;;;4921436;29;20227;-93
2020/12/20 02:34:38;;;;;;;9.00;5.37;;;12.20;76.90;;;;;;4920225;29;20692;-94
2020/12/20 02:37:04;;;;;;;17.17;5.40;;;12.10;76.70;;;;;;4921001;29;20173;-93
2020/12/20 02:39:32;;;;;;;10.50;4.90;;;11.90;77.20;;;;;;4921273;29;20224;-93
2020/12/20 02:41:57;;;;;;;23.73;5.97;;;12.00;77.00;;;;;;4926620;29;20236;-94
2020/12/20 02:44:23;;;;;;;17.10;5.60;;;12.10;77.20;;;;;;4927784;29;20275;-94
2020/12/20 02:46:49;;;;;;;11.23;5.30;;;12.00;77.00;;;;;;4928332;29;20196;-94
2020/12/20 02:49:15;;;;;;;12.40;5.80;;;12.10;77.00;;;;;;4930815;29;20232;-93
2020/12/20 02:51:40;;;;;;;7.80;5.70;;;11.80;77.30;;;;;;4924648;29;20480;-93
2020/12/20 02:54:06;;;;;;;15.50;7.10;;;12.10;77.40;;;;;;4929460;29;20172;-92
2020/12/20 02:56:32;;;;;;;11.27;5.13;;;12.20;76.70;;;;;;4937391;29;20185;-93
2020/12/20 02:58:58;;;;;;;19.17;6.50;;;12.10;76.70;;;;;;4924310;29;20236;-93
2020/12/20 03:01:23;;;;;;;7.73;5.27;;;12.10;76.70;;;;;;4927167;29;20424;-93
2020/12/20 03:03:49;;;;;;;15.93;5.20;;;12.30;76.60;;;;;;4943919;29;20180;-93
2020/12/20 03:06:15;;;;;;;12.87;5.13;;;12.20;76.30;;;;;;4942881;29;20180;-93
2020/12/20 03:08:41;;;;;;;14.73;4.78;;;12.10;76.50;;;;;;4925365;29;20210;-92
2020/12/20 03:11:07;;;;;;;9.10;4.37;;;12.20;76.40;;;;;;4925806;29;20213;-93
2020/12/20 03:13:33;;;;;;;7.80;4.50;;;12.20;76.20;;;;;;4924662;29;20425;-93
2020/12/20 03:15:58;;;;;;;9.50;4.70;;;12.30;76.10;;;;;;4923744;29;20212;-92
2020/12/20 03:18:24;;;;;;;13.03;4.87;;;12.40;76.10;;;;;;4923740;29;20428;-93
2020/12/20 03:20:50;;;;;;;11.20;5.33;;;12.30;75.90;;;;;;4923381;29;20209;-93
2020/12/20 03:23:15;;;;;;;13.07;4.80;;;12.20;75.80;;;;;;4923573;29;20193;-93
2020/12/20 03:25:41;;;;;;;11.93;5.13;;;12.10;76.40;;;;;;4927060;29;20268;-93
2020/12/20 03:28:07;;;;;;;8.17;5.30;;;12.00;76.40;;;;;;4922910;29;20642;-92
2020/12/20 03:30:32;;;;;;;13.03;4.63;;;12.00;76.60;;;;;;4925419;29;20292;-93
2020/12/20 03:32:58;;;;;;;8.57;4.70;;;11.90;77.00;;;;;;4924592;29;20217;-93
2020/12/20 03:35:24;;;;;;;12.23;5.63;;;11.80;77.20;;;;;;4925715;29;20421;-93
2020/12/20 03:37:55;;;;;;;11.73;5.73;;;12.00;77.20;;;;;;4926460;29;20193;-93
2020/12/20 03:40:22;;;;;;;9.70;4.50;;;12.00;77.00;;;;;;4928943;29;20216;-93
2020/12/20 03:42:48;;;;;;;5.97;4.15;;;12.00;76.80;;;;;;4924496;29;20189;-93
2020/12/20 03:45:18;;;;;;;15.00;4.88;;;12.00;76.80;;;;;;4922070;29;20668;-93
2020/12/20 03:47:45;;;;;;;13.07;4.95;;;11.90;76.70;;;;;;4922169;29;20185;-93
2020/12/20 03:50:11;;;;;;;13.43;5.07;;;11.90;76.80;;;;;;4935769;28;20212;-94
2020/12/20 03:52:37;;;;;;;11.70;5.30;;;11.90;77.10;;;;;;4921902;29;20248;-93
2020/12/20 03:55:04;;;;;;;11.50;4.28;;;11.90;77.40;;;;;;4940913;29;20452;-94
2020/12/20 03:57:30;;;;;;;12.07;5.18;;;11.90;77.50;;;;;;4922157;29;20249;-93
2020/12/20 03:59:57;;;;;;;10.20;4.90;;;12.00;77.10;;;;;;4922466;29;20201;-94
2020/12/20 04:02:23;;;;;;;7.80;5.00;;;12.10;76.80;;;;;;4930857;29;20471;-93
2020/12/20 04:04:49;;;;;;;7.18;3.90;;;12.20;76.50;;;;;;4921929;29;20181;-93
2020/12/20 04:07:15;;;;;;;13.30;5.60;;;12.20;76.30;;;;;;4921774;29;20177;-93
2020/12/20 04:09:42;;;;;;;12.18;4.15;;;12.20;76.30;;;;;;4922032;29;20459;-93
2020/12/20 04:12:08;;;;;;;13.45;5.38;;;12.20;76.20;;;;;;4921461;29;20211;-93
2020/12/20 04:14:34;;;;;;;14.50;4.50;;;12.30;76.00;;;;;;4921542;29;20177;-94
2020/12/20 04:17:00;;;;;;;8.40;4.90;;;12.30;76.10;;;;;;4923179;29;20193;-93
2020/12/20 04:19:25;;;;;;;10.63;5.13;;;12.40;75.80;;;;;;4921893;29;20220;-93
2020/12/20 04:21:51;;;;;;;11.77;5.53;;;12.40;75.60;;;;;;4921574;29;20559;-93
2020/12/20 04:24:17;;;;;;;13.40;5.18;;;12.40;75.50;;;;;;4923379;29;20276;-93
2020/12/20 04:26:43;;;;;;;16.40;4.87;;;12.40;75.50;;;;;;4921426;29;20649;-93
2020/12/20 04:29:10;;;;;;;19.35;4.65;;;12.50;75.70;;;;;;4921678;29;20689;-93
2020/12/20 04:31:36;;;;;;;12.32;5.20;;;12.30;75.40;;;;;;4921484;29;20209;-93
2020/12/20 04:34:02;;;;;;;8.70;4.97;;;12.20;75.50;;;;;;4921381;29;20181;-93
2020/12/20 04:36:28;;;;;;;14.95;4.95;;;12.20;75.60;;;;;;4921948;29;20188;-93
2020/12/20 04:38:55;;;;;;;13.93;5.20;;;12.20;75.80;;;;;;4923101;29;20177;-93
2020/12/20 04:41:22;;;;;;;18.83;5.07;;;12.20;75.40;;;;;;4921783;29;20542;-92
2020/12/20 04:43:49;;;;;;;13.55;4.65;;;12.20;75.40;;;;;;4921978;29;20272;-93
2020/12/20 04:46:17;;;;;;;13.65;4.70;;;12.30;75.60;;;;;;4940143;29;20252;-93
2020/12/20 04:48:44;;;;;;;12.25;4.40;;;12.10;75.50;;;;;;4922844;29;20186;-93
2020/12/20 04:51:11;;;;;;;13.23;5.72;;;12.10;75.80;;;;;;4921173;29;20204;-93
2020/12/20 04:53:37;;;;;;;12.10;4.32;;;11.90;75.90;;;;;;4921283;29;20196;-93
2020/12/20 04:56:06;;;;;;;9.87;4.17;;;12.00;76.40;;;;;;4920733;29;20182;-93
2020/12/20 04:58:32;;;;;;;13.93;5.38;;;12.20;76.10;;;;;;4920854;29;20457;-93
2020/12/20 05:00:58;;;;;;;13.43;4.72;;;12.20;75.60;;;;;;4923279;29;20209;-93
2020/12/20 05:03:25;;;;;;;11.43;4.32;;;12.10;75.70;;;;;;4935714;29;20187;-93
2020/12/20 05:05:51;;;;;;;7.03;4.72;;;12.10;75.60;;;;;;4940451;29;20216;-93
2020/12/20 05:08:21;;;;;;;14.83;4.73;;;12.00;75.70;;;;;;4940198;29;20220;-93
2020/12/20 05:10:47;;;;;;;13.80;4.85;;;11.90;75.90;;;;;;4940276;29;20205;-93
2020/12/20 05:13:12;;;;;;;14.52;5.50;;;11.70;76.70;;;;;;4940011;29;20188;-93
2020/12/20 05:15:38;;;;;;;11.33;4.47;;;11.50;77.50;;;;;;4940347;29;20180;-93
2020/12/20 05:18:05;;;;;;;7.60;4.43;;;11.50;77.80;;;;;;4939573;29;20206;-93
2020/12/20 05:20:46;;;;;;;12.85;4.90;;;11.60;77.70;;;;;;4939813;29;20204;-93
2020/12/20 05:23:13;;;;;;;19.73;5.05;;;11.80;77.30;;;;;;4942141;29;20183;-93
2020/12/20 05:25:41;;;;;;;15.50;4.65;;;11.60;77.20;;;;;;4940106;29;20177;-93
2020/12/20 05:28:24;;;;;;;17.88;5.35;;;11.60;77.70;;;;;;4940170;29;20271;-93
2020/12/20 05:30:50;;;;;;;7.93;4.22;;;11.60;77.20;;;;;;4939965;29;20656;-93
2020/12/20 05:33:26;;;;;;;14.67;5.37;;;11.50;77.80;;;;;;4940338;29;20181;-93
2020/12/20 05:36:06;;;;;;;14.82;6.30;;;11.40;77.90;;;;;;4940046;29;20424;-94
2020/12/20 05:38:33;;;;;;;18.33;3.67;;;11.30;78.00;;;;;;4940151;29;20168;-93
2020/12/20 05:41:00;;;;;;;20.65;4.82;;;11.40;78.20;;;;;;4951328;29;20201;-94
2020/12/20 05:43:28;;;;;;;10.98;5.22;;;11.30;78.40;;;;;;4939630;29;20189;-94
2020/12/20 05:45:57;;;;;;;10.82;4.35;;;11.50;78.20;;;;;;4941336;29;20272;-93
2020/12/20 05:48:26;;;;;;;14.93;4.70;;;11.40;78.10;;;;;;4939983;29;20188;-93
2020/12/20 05:50:55;;;;;;;15.50;5.07;;;11.40;77.90;;;;;;4939864;29;20276;-94
2020/12/20 05:53:23;;;;;;;23.77;5.15;;;11.60;77.80;;;;;;4942662;29;20680;-94
2020/12/20 05:55:49;;;;;;;15.05;5.43;;;11.40;77.70;;;;;;4942334;29;20248;-94
2020/12/20 05:58:15;;;;;;;19.48;6.00;;;11.30;78.10;;;;;;4941316;29;20205;-92
2020/12/20 06:00:43;;;;;;;10.98;4.65;;;11.30;78.10;;;;;;4939460;29;20692;-93
2020/12/20 06:03:10;;;;;;;21.67;5.30;;;11.40;78.00;;;;;;4927546;29;20182;-93
2020/12/20 06:05:46;;;;;;;16.90;5.25;;;11.40;78.00;;;;;;4921284;29;20712;-92
2020/12/20 06:08:13;;;;;;;17.92;4.95;;;11.40;77.90;;;;;;4902516;29;20262;-93
2020/12/20 06:10:54;;;;;;;14.50;5.35;;;11.50;77.90;;;;;;4920556;29;20218;-92
2020/12/20 06:13:22;;;;;;;13.77;4.75;;;11.50;77.70;;;;;;4920739;29;20287;-92
2020/12/20 06:15:57;;;;;;;15.98;5.18;;;11.40;77.40;;;;;;4921787;29;20697;-92
2020/12/20 06:18:28;;;;;;;17.73;5.82;;;11.50;77.40;;;;;;4933346;29;20216;-93
2020/12/20 06:20:58;;;;;;;14.45;6.20;;;11.50;77.30;;;;;;4928712;29;20197;-93
2020/12/20 06:23:28;;;;;;;21.58;5.57;;;11.40;77.10;;;;;;4935578;29;20208;-92
2020/12/20 06:25:56;;;;;;;10.23;5.38;;;11.40;77.60;;;;;;4961401;28;20185;-94
2020/12/20 06:28:26;;;;;;;17.65;5.60;;;11.30;77.60;;;;;;4947673;28;20181;-93
2020/12/20 06:30:53;;;;;;;20.58;5.55;;;11.40;77.80;;;;;;4928311;29;20193;-93
2020/12/20 06:33:51;;;;;;;14.15;5.28;;;11.50;77.60;;;;;;4929351;29;20181;-94
2020/12/20 06:36:17;;;;;;;13.88;5.75;;;11.50;77.20;;;;;;4947210;29;20181;-94
2020/12/20 06:38:53;;;;;;;14.13;5.57;;;11.30;77.70;;;;;;4931220;29;20189;-93
2020/12/20 06:41:51;;;;;;;16.38;4.65;;;11.20;77.90;;;;;;4924781;29;20173;-93
2020/12/20 06:44:17;;;;;;;10.70;4.55;;;11.30;77.90;;;;;;4923348;29;20182;-93
2020/12/20 06:46:43;;;;;;;26.13;5.50;;;11.20;77.80;;;;;;4923538;29;20177;-93
2020/12/20 06:49:32;;;;;;;12.20;5.20;;;11.20;78.10;;;;;;4923906;29;20201;-94
2020/12/20 06:52:30;;;;;;;13.73;5.20;;;11.10;78.30;;;;;;4924523;29;20961;-93
2020/12/20 06:55:12;;;;;;;15.30;4.35;;;11.10;78.50;;;;;;4924168;29;20181;-94
2020/12/20 06:58:03;;;;;;;14.75;5.05;;;11.00;78.70;;;;;;4923537;29;20185;-94
2020/12/20 07:00:45;;;;;;;16.58;4.70;;;11.00;78.70;;;;;;4939860;29;20201;-93
2020/12/20 07:03:31;;;;;;;16.92;6.13;;;11.00;79.00;;;;;;4924850;29;20224;-93
2020/12/20 07:06:08;;;;;;;16.40;4.82;;;11.00;79.00;;;;;;4963130;28;20177;-94
2020/12/20 07:08:38;;;;;;;14.45;5.30;;;11.10;79.20;;;;;;4947495;28;20248;-95
2020/12/20 07:11:08;;;;;;;20.50;5.82;;;11.40;78.60;;;;;;4947110;29;20201;-94
2020/12/20 07:13:47;;;;;;;14.20;5.40;;;11.40;77.90;;;;;;4933201;29;20615;-94
2020/12/20 07:16:15;;;;;;;14.85;4.72;;;11.30;77.80;;;;;;4924531;29;20268;-94
2020/12/20 07:18:54;;;;;;;16.67;5.10;;;11.50;77.70;;;;;;4931218;29;20196;-94
2020/12/20 07:21:19;;;;;;;16.20;5.97;;;11.50;77.20;;;;;;4923884;29;20185;-93
2020/12/20 07:23:51;;;;;;;24.50;6.03;;;11.40;77.10;;;;;;4924056;29;20595;-94
2020/12/20 07:26:17;;;;;;;9.07;4.85;;;11.30;77.40;;;;;;4922414;29;20185;-94
2020/12/20 07:28:43;;;;;;;11.67;6.90;;;11.30;77.90;;;;;;4923251;29;20603;-94
2020/12/20 07:31:17;;;;;;;19.20;5.17;;;11.30;78.00;;;;;;4932604;29;20217;-94
2020/12/20 07:33:43;;;;;;;18.50;6.88;;;11.30;77.70;;;;;;4923291;29;20186;-94
2020/12/20 07:36:09;;;;;;;14.15;5.05;;;11.20;77.70;;;;;;4923628;29;20197;-93
2020/12/20 07:38:35;;;;;;;7.10;4.37;;;11.20;78.20;;;;;;4922894;29;20177;-93
2020/12/20 07:41:06;;;;;;;15.70;5.70;;;11.40;78.10;;;;;;4923025;29;20949;-93
2020/12/20 07:43:32;;;;;;;15.52;5.55;;;11.50;77.60;;;;;;4923491;29;20165;-93
2020/12/20 07:46:00;;;;;;;12.43;5.97;;;11.30;77.30;;;;;;4925654;29;20188;-95
2020/12/20 07:48:26;;;;;;;13.13;5.03;;;11.20;77.40;;;;;;4924868;29;20597;-93
2020/12/20 07:51:19;;;;;;;10.65;5.07;;;11.20;77.80;;;;;;4923072;29;20206;-93
2020/12/20 07:53:56;;;;;;;16.33;6.38;;;11.20;77.80;;;;;;4923203;29;20188;-94
2020/12/20 07:56:32;;;;;;;28.13;6.43;;;11.10;78.10;;;;;;4924421;29;20195;-94
2020/12/20 07:59:06;;;;;;;22.00;5.95;;;11.00;78.40;;;;;;4923078;29;20212;-94
2020/12/20 08:01:32;;;;;;;12.75;4.68;;;11.30;78.50;;;;;;4923073;29;20178;-94
2020/12/20 08:04:21;;;;;;;18.85;4.97;;;11.30;77.90;;;;;;4941192;29;20536;-93
2020/12/20 08:06:49;;;;;;;23.98;4.90;;;11.50;77.80;;;;;;4941845;29;20226;-93
2020/12/20 08:09:19;;;;;;;12.15;5.25;;;11.50;77.30;;;;;;4942046;29;20555;-94
2020/12/20 08:11:45;;;;;;;7.85;4.53;;;11.70;77.00;;;;;;4943537;29;20208;-94
2020/12/20 08:14:16;;;;;;;16.38;6.25;;;11.70;76.80;;;;;;4944024;29;20189;-93
2020/12/20 08:16:47;;;;;;;15.07;7.53;;;11.80;76.50;;;;;;4945468;29;20209;-94
2020/12/20 08:19:16;;;;;;;10.63;5.43;;;11.70;76.30;;;;;;4948204;29;20288;-93
2020/12/20 08:22:07;;;;;;;18.73;6.07;;;11.70;76.40;;;;;;4947985;29;20659;-93
2020/12/20 08:24:34;;;;;;;28.80;6.30;;;11.60;76.40;;;;;;4948722;29;20219;-94
2020/12/20 08:27:17;;;;;;;26.08;6.88;;;11.50;76.40;;;;;;4960093;28;20185;-94
2020/12/20 08:29:52;;;;;;;27.85;6.38;;;11.50;76.50;;;;;;4949723;29;20211;-94
2020/12/20 08:32:21;;;;;;;22.30;6.30;;;11.50;76.90;;;;;;4951396;29;20215;-94
2020/12/20 08:34:48;;;;;;;11.48;5.47;;;11.50;76.90;;;;;;4948409;29;20179;-94
2020/12/20 08:37:20;;;;;;;13.68;5.05;;;11.60;76.80;;;;;;4948566;29;20210;-94
2020/12/20 08:39:46;;;;;;;15.07;5.65;;;11.60;76.50;;;;;;4947207;29;20200;-94
2020/12/20 08:42:15;;;;;;;19.55;5.20;;;11.70;76.60;;;;;;4947694;29;20705;-94
2020/12/20 08:44:42;;;;;;;12.35;5.35;;;11.70;76.60;;;;;;4946032;29;20243;-93
2020/12/20 08:47:13;;;;;;;17.60;3.75;;;11.60;76.60;;;;;;4927446;29;20184;-94
2020/12/20 08:49:41;;;;;;;10.77;5.03;;;11.50;77.00;;;;;;4927315;29;20229;-93
2020/12/20 08:52:12;;;;;;;8.88;4.40;;;11.60;77.10;;;;;;4929909;29;20563;-93
2020/12/20 08:54:38;;;;;;;24.73;4.75;;;11.60;76.60;;;;;;4929479;29;20179;-93
2020/12/20 08:57:12;;;;;;;10.70;4.50;;;11.40;77.00;;;;;;4929443;29;20279;-93
2020/12/20 08:59:43;;;;;;;16.58;5.20;;;11.50;77.20;;;;;;4945468;29;20192;-93
2020/12/20 09:02:24;;;;;;;12.05;4.50;;;11.60;77.00;;;;;;4948306;29;20185;-94
2020/12/20 09:04:58;;;;;;;9.38;4.03;;;11.70;76.60;;;;;;4946258;29;20207;-93
2020/12/20 09:07:45;;;;;;;21.35;5.13;;;11.80;76.30;;;;;;4946295;29;20200;-94
2020/12/20 09:10:15;;;;;;;8.68;4.53;;;11.80;76.00;;;;;;4949227;29;20593;-93
2020/12/20 09:12:52;;;;;;;12.65;5.40;;;11.80;75.90;;;;;;4946519;29;20216;-94
2020/12/20 09:15:22;;;;;;;17.60;4.97;;;11.60;76.30;;;;;;4966564;29;20164;-94
2020/12/20 09:17:52;;;;;;;17.00;4.85;;;11.80;76.60;;;;;;4954717;29;20164;-93
2020/12/20 09:20:25;;;;;;;16.25;4.68;;;11.90;76.00;;;;;;4960187;29;20196;-93
2020/12/20 09:22:55;;;;;;;14.55;4.68;;;12.20;75.80;;;;;;4963717;28;20173;-94
2020/12/20 09:25:36;;;;;;;15.68;4.45;;;12.10;75.20;;;;;;4962436;29;20176;-93
2020/12/20 09:28:11;;;;;;;12.35;5.50;;;12.10;75.00;;;;;;4955599;29;20245;-91
2020/12/20 09:30:44;;;;;;;15.65;4.97;;;12.30;75.00;;;;;;4953535;29;20220;-91
2020/12/20 09:33:22;;;;;;;10.00;5.30;;;12.20;74.60;;;;;;4952476;29;20247;-92
2020/12/20 09:35:56;;;;;;;9.02;4.00;;;12.30;74.70;;;;;;4942585;29;20172;-93
2020/12/20 09:38:25;;;;;;;9.73;4.85;;;12.30;74.50;;;;;;4941014;29;20215;-92
2020/12/20 09:40:58;;;;;;;15.75;5.43;;;12.20;74.40;;;;;;4938913;29;20213;-93
2020/12/20 09:43:25;;;;;;;16.30;4.78;;;12.30;74.80;;;;;;4939547;29;20183;-92
2020/12/20 09:45:51;;;;;;;5.20;3.75;;;12.50;74.50;;;;;;4940798;29;20184;-92
2020/12/20 09:48:16;;;;;;;16.60;4.97;;;12.50;74.10;;;;;;4940405;29;20265;-93
2020/12/20 09:51:10;;;;;;;25.63;4.70;;;12.60;73.60;;;;;;4938119;29;20440;-93
2020/12/20 09:53:36;;;;;;;10.57;5.30;;;12.80;73.40;;;;;;4939105;29;20200;-93
2020/12/20 09:56:02;;;;;;;17.30;4.23;;;12.70;73.30;;;;;;4938704;29;20607;-91
2020/12/20 09:58:28;;;;;;;13.77;4.93;;;12.80;73.10;;;;;;4938981;29;20212;-92
2020/12/20 10:00:54;;;;;;;19.20;4.55;;;12.80;72.80;;;;;;4938837;29;20205;-93
2020/12/20 10:03:19;;;;;;;17.17;4.77;;;12.80;72.20;;;;;;4938886;29;20308;-93
2020/12/20 10:05:46;;;;;;;24.20;6.57;;;12.80;72.80;;;;;;4938650;29;20648;-92
2020/12/20 10:08:16;;;;;;;22.17;5.00;;;12.60;73.30;;;;;;4920370;29;20178;-92
2020/12/20 10:11:02;;;;;;;10.85;4.22;;;12.70;73.10;;;;;;4919403;29;20291;-92
2020/12/20 10:13:27;;;;;;;17.00;6.15;;;12.90;72.70;;;;;;4919301;29;20188;-92
2020/12/20 10:15:53;;;;;;;14.17;4.63;;;12.90;72.40;;;;;;4919491;29;20185;-92
2020/12/20 10:18:19;;;;;;;15.70;5.17;;;12.80;72.30;;;;;;4933508;29;20193;-92
2020/12/20 10:21:15;;;;;;;33.13;4.40;;;13.00;72.20;;;;;;4920668;29;20244;-92
2020/12/20 10:23:41;;;;;;;19.17;4.22;;;12.60;73.00;;;;;;4919463;29;20204;-93
2020/12/20 10:26:11;;;;;;;19.08;5.55;;;12.70;74.10;;;;;;4919050;29;20185;-92
2020/12/20 10:28:40;;;;;;;13.52;4.32;;;13.00;74.20;;;;;;4920361;29;20185;-93
2020/12/20 10:31:06;;;;;;;14.38;6.13;;;13.00;72.80;;;;;;4920983;29;20181;-92
2020/12/20 10:33:32;;;;;;;17.40;4.23;;;13.30;72.70;;;;;;4920509;29;20188;-92
2020/12/20 10:35:58;;;;;;;7.90;4.45;;;13.20;72.60;;;;;;4919128;29;20432;-92
2020/12/20 10:38:23;;;;;;;15.93;4.30;;;13.40;72.40;;;;;;4921233;29;20190;-91
2020/12/20 10:40:49;;;;;;;21.40;4.43;;;13.60;72.20;;;;;;4921452;29;20206;-92
2020/12/20 10:43:15;;;;;;;11.73;4.50;;;13.50;71.00;;;;;;4921822;29;20181;-92
2020/12/20 10:45:41;;;;;;;18.43;4.33;;;13.60;71.60;;;;;;4919556;29;20201;-92
2020/12/20 10:48:06;;;;;;;17.17;4.78;;;13.70;71.00;;;;;;4919192;29;20592;-92
2020/12/20 10:50:33;;;;;;;16.17;4.27;;;13.70;71.00;;;;;;4919826;29;20269;-92
2020/12/20 10:52:59;;;;;;;27.38;5.40;;;13.80;71.00;;;;;;4920938;29;20223;-91
2020/12/20 10:55:25;;;;;;;12.37;4.77;;;13.60;70.50;;;;;;4920581;29;20182;-92
2020/12/20 10:57:51;;;;;;;10.37;5.00;;;13.60;70.50;;;;;;4919405;29;20189;-92
2020/12/20 11:00:16;;;;;;;10.53;4.30;;;13.60;71.30;;;;;;4920074;29;20233;-92
2020/12/20 11:02:42;;;;;;;13.87;4.53;;;13.50;71.50;;;;;;4922856;29;20429;-92
2020/12/20 11:05:08;;;;;;;19.10;5.30;;;13.40;71.30;;;;;;4923802;29;20645;-92
2020/12/20 11:07:34;;;;;;;21.33;5.53;;;13.60;71.40;;;;;;4925976;29;20181;-92
2020/12/20 11:09:59;;;;;;;10.53;3.27;;;13.50;71.10;;;;;;4929144;29;20448;-92
2020/12/20 11:12:25;;;;;;;11.30;3.43;;;13.60;70.90;;;;;;4930753;29;20459;-92
2020/12/20 11:14:51;;;;;;;24.13;4.90;;;13.70;71.20;;;;;;4931651;29;20625;-92
2020/12/20 11:17:17;;;;;;;14.37;4.57;;;13.40;70.00;;;;;;4924803;29;20516;-92
2020/12/20 11:19:42;;;;;;;13.37;4.27;;;13.70;70.10;;;;;;4925038;29;20221;-91
2020/12/20 11:22:08;;;;;;;17.17;4.30;;;13.70;69.40;;;;;;4923831;29;20185;-92
2020/12/20 11:24:33;;;;;;;17.77;5.47;;;13.70;69.70;;;;;;4923331;29;20185;-91
2020/12/20 11:26:59;;;;;;;14.23;4.47;;;13.80;69.70;;;;;;4923084;29;20192;-91
2020/12/20 11:29:25;;;;;;;13.40;5.33;;;13.60;69.70;;;;;;4924581;29;20201;-91
2020/12/20 11:31:51;;;;;;;10.93;3.07;;;13.50;69.50;;;;;;4922352;29;20556;-91
2020/12/20 11:34:17;;;;;;;19.27;5.50;;;13.80;70.10;;;;;;4924313;29;20181;-91
2020/12/20 11:36:43;;;;;;;13.10;5.10;;;13.90;69.70;;;;;;4923428;29;20421;-91
2020/12/20 11:39:11;;;;;;;18.73;4.30;;;13.90;69.60;;;;;;4923171;29;20441;-91
2020/12/20 11:41:37;;;;;;;23.70;5.00;;;14.00;69.20;;;;;;4922223;29;20185;-92
2020/12/20 11:44:05;;;;;;;13.40;3.80;;;14.00;68.40;;;;;;4924524;29;20664;-92
2020/12/20 11:46:31;;;;;;;18.95;4.13;;;13.90;67.70;;;;;;4907852;29;20193;-93
2020/12/20 11:48:57;;;;;;;13.83;4.43;;;13.80;67.80;;;;;;4922739;29;20205;-93
2020/12/20 11:51:26;;;;;;;13.33;3.57;;;13.80;67.80;;;;;;4923432;29;20457;-92
2020/12/20 11:53:55;;;;;;;10.30;4.70;;;13.90;67.90;;;;;;4926379;29;20445;-93
2020/12/20 11:56:21;;;;;;;12.07;3.92;;;13.90;67.70;;;;;;4924072;29;20253;-92
2020/12/20 11:58:46;;;;;;;20.45;4.20;;;14.10;68.50;;;;;;4923542;29;20190;-92
2020/12/20 12:01:12;;;;;;;11.33;4.33;;;13.80;68.40;;;;;;4922442;29;20276;-92
2020/12/20 12:03:38;;;;;;;15.60;3.70;;;14.10;68.60;;;;;;4938257;29;20183;-92
2020/12/20 12:06:06;;;;;;;12.20;3.70;;;14.20;68.00;;;;;;4938469;29;20941;-92
2020/12/20 12:08:32;;;;;;;8.00;3.13;;;14.30;67.70;;;;;;4935407;29;20197;-91
2020/12/20 12:10:58;;;;;;;15.40;4.90;;;14.20;66.90;;;;;;4922918;29;20216;-92
2020/12/20 12:13:24;;;;;;;16.47;4.23;;;14.20;67.10;;;;;;4922253;29;20186;-92
2020/12/20 12:15:49;;;;;;;11.30;3.97;;;14.00;66.80;;;;;;4923239;29;20232;-92
2020/12/20 12:18:15;;;;;;;14.63;4.13;;;14.10;66.90;;;;;;4922048;29;20212;-92
2020/12/20 12:20:41;;;;;;;10.23;5.00;;;13.70;66.80;;;;;;4924953;29;20209;-92
2020/12/20 12:23:07;;;;;;;21.23;4.63;;;13.40;68.10;;;;;;4923332;29;20193;-92
2020/12/20 12:25:33;;;;;;;16.13;4.30;;;13.30;68.50;;;;;;4925669;29;20479;-92
2020/12/20 12:27:59;;;;;;;10.25;3.85;;;13.40;68.40;;;;;;4924037;29;20189;-93
2020/12/20 12:30:25;;;;;;;8.30;3.50;;;13.40;68.20;;;;;;4923606;29;20300;-93
2020/12/20 12:32:54;;;;;;;18.73;4.03;;;13.70;68.10;;;;;;4925388;29;20589;-93
2020/12/20 12:35:21;;;;;;;15.18;4.50;;;13.50;67.20;;;;;;4923966;29;20212;-93
2020/12/20 12:37:48;;;;;;;15.38;5.22;;;13.50;67.30;;;;;;4923844;29;20261;-93
2020/12/20 12:40:20;;;;;;;11.18;5.57;;;13.60;67.30;;;;;;4924440;29;20256;-93
2020/12/20 12:42:46;;;;;;;13.20;3.88;;;13.50;67.10;;;;;;4924166;29;20188;-93
2020/12/20 12:45:14;;;;;;;17.65;4.20;;;13.30;67.40;;;;;;4924926;29;20320;-93